sensor_id;sensor_type;location;lat;lon;timestamp;temperature;humidity
15900;DHT22;8048;50.644;6.184;2023-04-29T00:01:07;11.60;99.90
15900;DHT22;8048;50.644;6.184;2023-04-29T00:03:33;11.50;99.90
15900;DHT22;8048;50.644;6.184;2023-04-29T00:05:59;11.60;99.90
15900;DHT22;8048;50.644;6.184;2023-04-29T00:08:25;11.50;99.90
15900;DHT22;8048;50.644;6.184;2023-04-29T00:10:50;11.50;99.90
15900;DHT22;8048;50.644;6.184;2023-04-29T00:13:16;11.40;99.90
15900;DHT22;8048;50.644;6.184;2023-04-29T00:15:42;11.40;99.90
15900;DHT22;8048;50.644;6.184;2023-04-29T00:18:08;11.40;99.90
15900;DHT22;8048;50.644;6.184;2023-04-29T00:20:34;11.40;99.90
15900;DHT22;8048;50.644;6.184;2023-04-29T00:23:00;11.40;99.90
15900;DHT22;8048;50.644;6.184;2023-04-29T00:25:26;11.50;99.90
15900;DHT22;8048;50.644;6.184;2023-04-29T00:27:51;11.50;99.90
15900;DHT22;8048;50.644;6.184;2023-04-29T00:30:17;11.50;99.90
15900;DHT22;8048;50.644;6.184;2023-04-29T00:32:43;11.40;99.90
15900;DHT22;8048;50.644;6.184;2023-04-29T00:35:09;11.40;99.90
15900;DHT22;8048;50.644;6.184;2023-04-29T00:37:34;11.30;99.90
15900;DHT22;8048;50.644;6.184;2023-04-29T00:40:00;11.30;99.90
15900;DHT22;8048;50.644;6.184;2023-04-29T00:42:26;11.30;99.90
15900;DHT22;8048;50.644;6.184;2023-04-29T00:44:52;11.30;99.90
15900;DHT22;8048;50.644;6.184;2023-04-29T00:47:17;11.20;99.90
15900;DHT22;8048;50.644;6.184;2023-04-29T00:49:43;11.30;99.90
15900;DHT22;8048;50.644;6.184;2023-04-29T00:52:10;11.20;99.90
15900;DHT22;8048;50.644;6.184;2023-04-29T00:54:36;11.30;99.90
15900;DHT22;8048;50.644;6.184;2023-04-29T00:57:03;11.30;99.90
15900;DHT22;8048;50.644;6.184;2023-04-29T00:59:30;11.20;99.90
15900;DHT22;8048;50.644;6.184;2023-04-29T01:02:03;11.20;99.90
15900;DHT22;8048;50.644;6.184;2023-04-29T01:04:29;11.20;99.90
15900;DHT22;8048;50.644;6.184;2023-04-29T01:07:32;11.20;99.90
15900;DHT22;8048;50.644;6.184;2023-04-29T01:10:14;11.10;99.90
15900;DHT22;8048;50.644;6.184;2023-04-29T01:13:06;11.10;99.90
15900;DHT22;8048;50.644;6.184;2023-04-29T01:15:49;11.00;99.90
15900;DHT22;8048;50.644;6.184;2023-04-29T01:18:24;11.00;99.90
15900;DHT22;8048;50.644;6.184;2023-04-29T01:20:51;11.00;99.90
15900;DHT22;8048;50.644;6.184;2023-04-29T01:23:16;10.90;99.90
15900;DHT22;8048;50.644;6.184;2023-04-29T01:25:42;11.00;99.90
15900;DHT22;8048;50.644;6.184;2023-04-29T01:28:20;10.90;99.90
15900;DHT22;8048;50.644;6.184;2023-04-29T01:31:43;10.90;99.90
15900;DHT22;8048;50.644;6.184;2023-04-29T01:34:05;10.90;99.90
15900;DHT22;8048;50.644;6.184;2023-04-29T01:36:51;10.90;99.90
15900;DHT22;8048;50.644;6.184;2023-04-29T01:41:50;10.80;99.90
15900;DHT22;8048;50.644;6.184;2023-04-29T01:44:23;10.80;99.90
15900;DHT22;8048;50.644;6.184;2023-04-29T01:46:52;10.80;99.90
15900;DHT22;8048;50.644;6.184;2023-04-29T01:49:25;10.80;99.90
15900;DHT22;8048;50.644;6.184;2023-04-29T01:51:51;10.80;99.90
15900;DHT22;8048;50.644;6.184;2023-04-29T01:54:16;10.80;99.90
15900;DHT22;8048;50.644;6.184;2023-04-29T01:56:43;10.80;99.90
15900;DHT22;8048;50.644;6.184;2023-04-29T01:59:08;10.70;99.90
15900;DHT22;8048;50.644;6.184;2023-04-29T02:01:34;10.80;99.90
15900;DHT22;8048;50.644;6.184;2023-04-29T02:03:59;10.80;99.90
15900;DHT22;8048;50.644;6.184;2023-04-29T02:06:25;10.70;99.90
15900;DHT22;8048;50.644;6.184;2023-04-29T02:08:52;10.80;99.90
15900;DHT22;8048;50.644;6.184;2023-04-29T02:11:17;10.80;99.90
15900;DHT22;8048;50.644;6.184;2023-04-29T02:13:43;10.80;99.90
15900;DHT22;8048;50.644;6.184;2023-04-29T02:16:13;10.80;99.90
15900;DHT22;8048;50.644;6.184;2023-04-29T02:18:39;10.80;99.90
15900;DHT22;8048;50.644;6.184;2023-04-29T02:21:05;10.80;99.90
15900;DHT22;8048;50.644;6.184;2023-04-29T02:23:32;10.70;99.90
15900;DHT22;8048;50.644;6.184;2023-04-29T02:25:58;10.70;99.90
15900;DHT22;8048;50.644;6.184;2023-04-29T02:28:23;10.60;99.90
15900;DHT22;8048;50.644;6.184;2023-04-29T02:30:49;10.50;99.90
15900;DHT22;8048;50.644;6.184;2023-04-29T02:33:15;10.50;99.90
15900;DHT22;8048;50.644;6.184;2023-04-29T02:35:40;10.50;99.90
15900;DHT22;8048;50.644;6.184;2023-04-29T02:38:06;10.50;99.90
15900;DHT22;8048;50.644;6.184;2023-04-29T02:40:32;10.40;99.90
15900;DHT22;8048;50.644;6.184;2023-04-29T02:42:57;10.40;99.90
15900;DHT22;8048;50.644;6.184;2023-04-29T02:45:23;10.30;99.90
15900;DHT22;8048;50.644;6.184;2023-04-29T02:47:48;10.40;99.90
15900;DHT22;8048;50.644;6.184;2023-04-29T02:50:14;10.30;99.90
15900;DHT22;8048;50.644;6.184;2023-04-29T02:52:39;10.30;99.90
15900;DHT22;8048;50.644;6.184;2023-04-29T02:55:06;10.30;99.90
15900;DHT22;8048;50.644;6.184;2023-04-29T02:57:32;10.30;99.90
15900;DHT22;8048;50.644;6.184;2023-04-29T02:59:58;10.20;99.90
15900;DHT22;8048;50.644;6.184;2023-04-29T03:02:24;10.20;99.90
15900;DHT22;8048;50.644;6.184;2023-04-29T03:04:49;10.30;99.90
15900;DHT22;8048;50.644;6.184;2023-04-29T03:07:15;10.30;99.90
15900;DHT22;8048;50.644;6.184;2023-04-29T03:09:41;10.20;99.90
15900;DHT22;8048;50.644;6.184;2023-04-29T03:12:07;10.20;99.90
15900;DHT22;8048;50.644;6.184;2023-04-29T03:14:33;10.20;99.90
15900;DHT22;8048;50.644;6.184;2023-04-29T03:16:58;10.20;99.90
15900;DHT22;8048;50.644;6.184;2023-04-29T03:19:24;10.20;99.90
15900;DHT22;8048;50.644;6.184;2023-04-29T03:21:49;10.20;99.90
15900;DHT22;8048;50.644;6.184;2023-04-29T03:24:15;10.30;99.90
15900;DHT22;8048;50.644;6.184;2023-04-29T03:26:40;10.20;99.90
15900;DHT22;8048;50.644;6.184;2023-04-29T03:29:07;10.10;99.90
15900;DHT22;8048;50.644;6.184;2023-04-29T03:31:33;10.10;99.90
15900;DHT22;8048;50.644;6.184;2023-04-29T03:33:58;10.10;99.90
15900;DHT22;8048;50.644;6.184;2023-04-29T03:36:24;10.00;99.90
15900;DHT22;8048;50.644;6.184;2023-04-29T03:38:50;10.00;99.90
15900;DHT22;8048;50.644;6.184;2023-04-29T03:41:15;10.00;99.90
15900;DHT22;8048;50.644;6.184;2023-04-29T03:43:41;9.90;99.90
15900;DHT22;8048;50.644;6.184;2023-04-29T03:46:08;10.00;99.90
15900;DHT22;8048;50.644;6.184;2023-04-29T03:48:34;10.10;99.90
15900;DHT22;8048;50.644;6.184;2023-04-29T03:51:01;10.10;99.90
15900;DHT22;8048;50.644;6.184;2023-04-29T03:53:26;10.10;99.90
15900;DHT22;8048;50.644;6.184;2023-04-29T03:55:52;10.10;99.90
15900;DHT22;8048;50.644;6.184;2023-04-29T03:58:17;10.10;99.90
15900;DHT22;8048;50.644;6.184;2023-04-29T04:00:43;10.10;99.90
15900;DHT22;8048;50.644;6.184;2023-04-29T04:03:08;10.00;99.90
15900;DHT22;8048;50.644;6.184;2023-04-29T04:05:34;10.10;99.90
15900;DHT22;8048;50.644;6.184;2023-04-29T04:08:00;10.00;99.90
15900;DHT22;8048;50.644;6.184;2023-04-29T04:10:25;10.00;99.90
15900;DHT22;8048;50.644;6.184;2023-04-29T04:12:52;10.00;99.90
15900;DHT22;8048;50.644;6.184;2023-04-29T04:15:18;10.00;99.90
15900;DHT22;8048;50.644;6.184;2023-04-29T04:17:43;10.10;99.90
15900;DHT22;8048;50.644;6.184;2023-04-29T04:20:09;10.00;99.90
15900;DHT22;8048;50.644;6.184;2023-04-29T04:22:35;10.00;99.90
15900;DHT22;8048;50.644;6.184;2023-04-29T04:25:02;10.00;99.90
15900;DHT22;8048;50.644;6.184;2023-04-29T04:27:28;9.90;99.90
15900;DHT22;8048;50.644;6.184;2023-04-29T04:29:54;9.90;99.90
15900;DHT22;8048;50.644;6.184;2023-04-29T04:32:23;9.90;99.90
15900;DHT22;8048;50.644;6.184;2023-04-29T04:34:49;9.90;99.90
15900;DHT22;8048;50.644;6.184;2023-04-29T04:37:15;9.90;99.90
15900;DHT22;8048;50.644;6.184;2023-04-29T04:39:40;10.00;99.90
15900;DHT22;8048;50.644;6.184;2023-04-29T04:42:06;9.90;99.90
15900;DHT22;8048;50.644;6.184;2023-04-29T04:44:32;9.80;99.90
15900;DHT22;8048;50.644;6.184;2023-04-29T04:46:58;9.80;99.90
15900;DHT22;8048;50.644;6.184;2023-04-29T04:49:25;9.80;99.90
15900;DHT22;8048;50.644;6.184;2023-04-29T04:51:51;9.80;99.90
15900;DHT22;8048;50.644;6.184;2023-04-29T04:54:17;9.80;99.90
15900;DHT22;8048;50.644;6.184;2023-04-29T04:56:43;9.80;99.90
15900;DHT22;8048;50.644;6.184;2023-04-29T04:59:08;9.80;99.90
15900;DHT22;8048;50.644;6.184;2023-04-29T05:01:34;9.80;99.90
15900;DHT22;8048;50.644;6.184;2023-04-29T05:03:59;9.70;99.90
15900;DHT22;8048;50.644;6.184;2023-04-29T05:06:26;9.80;99.90
15900;DHT22;8048;50.644;6.184;2023-04-29T05:08:52;9.80;99.90
15900;DHT22;8048;50.644;6.184;2023-04-29T05:11:19;9.80;99.90
15900;DHT22;8048;50.644;6.184;2023-04-29T05:13:44;9.80;99.90
15900;DHT22;8048;50.644;6.184;2023-04-29T05:16:10;9.90;99.90
15900;DHT22;8048;50.644;6.184;2023-04-29T05:18:36;9.90;99.90
15900;DHT22;8048;50.644;6.184;2023-04-29T05:21:01;9.80;99.90
15900;DHT22;8048;50.644;6.184;2023-04-29T05:23:27;9.90;99.90
15900;DHT22;8048;50.644;6.184;2023-04-29T05:25:52;9.80;99.90
15900;DHT22;8048;50.644;6.184;2023-04-29T05:28:18;9.80;99.90
15900;DHT22;8048;50.644;6.184;2023-04-29T05:30:44;9.70;99.90
15900;DHT22;8048;50.644;6.184;2023-04-29T05:33:09;9.70;99.90
15900;DHT22;8048;50.644;6.184;2023-04-29T05:35:36;9.70;99.90
15900;DHT22;8048;50.644;6.184;2023-04-29T05:38:02;9.60;99.90
15900;DHT22;8048;50.644;6.184;2023-04-29T05:40:27;9.60;99.90
15900;DHT22;8048;50.644;6.184;2023-04-29T05:42:53;9.60;99.90
15900;DHT22;8048;50.644;6.184;2023-04-29T05:45:19;9.60;99.90
15900;DHT22;8048;50.644;6.184;2023-04-29T05:47:45;9.60;99.90
15900;DHT22;8048;50.644;6.184;2023-04-29T05:50:10;9.60;99.90
15900;DHT22;8048;50.644;6.184;2023-04-29T05:52:36;9.60;99.90
15900;DHT22;8048;50.644;6.184;2023-04-29T05:55:02;9.60;99.90
15900;DHT22;8048;50.644;6.184;2023-04-29T05:57:28;9.70;99.90
15900;DHT22;8048;50.644;6.184;2023-04-29T05:59:53;9.70;99.90
15900;DHT22;8048;50.644;6.184;2023-04-29T06:02:20;9.70;99.90
15900;DHT22;8048;50.644;6.184;2023-04-29T06:04:45;9.70;99.90
15900;DHT22;8048;50.644;6.184;2023-04-29T06:07:12;9.70;99.90
15900;DHT22;8048;50.644;6.184;2023-04-29T06:09:38;9.80;99.90
15900;DHT22;8048;50.644;6.184;2023-04-29T06:12:04;9.80;99.90
15900;DHT22;8048;50.644;6.184;2023-04-29T06:14:30;9.80;99.90
15900;DHT22;8048;50.644;6.184;2023-04-29T06:16:56;9.80;99.90
15900;DHT22;8048;50.644;6.184;2023-04-29T06:19:21;9.80;99.90
15900;DHT22;8048;50.644;6.184;2023-04-29T06:21:47;9.80;99.90
15900;DHT22;8048;50.644;6.184;2023-04-29T06:24:12;9.80;99.90
15900;DHT22;8048;50.644;6.184;2023-04-29T06:26:38;9.80;99.90
15900;DHT22;8048;50.644;6.184;2023-04-29T06:29:03;9.80;99.90
15900;DHT22;8048;50.644;6.184;2023-04-29T06:31:29;9.80;99.90
15900;DHT22;8048;50.644;6.184;2023-04-29T06:33:54;9.80;99.90
15900;DHT22;8048;50.644;6.184;2023-04-29T06:36:20;9.80;99.90
15900;DHT22;8048;50.644;6.184;2023-04-29T06:38:45;9.70;99.90
15900;DHT22;8048;50.644;6.184;2023-04-29T06:41:11;9.80;99.90
15900;DHT22;8048;50.644;6.184;2023-04-29T06:43:37;9.80;99.90
15900;DHT22;8048;50.644;6.184;2023-04-29T06:46:03;9.80;99.90
15900;DHT22;8048;50.644;6.184;2023-04-29T06:48:28;9.80;99.90
15900;DHT22;8048;50.644;6.184;2023-04-29T06:50:56;9.80;99.90
15900;DHT22;8048;50.644;6.184;2023-04-29T06:53:23;9.80;99.90
15900;DHT22;8048;50.644;6.184;2023-04-29T06:55:49;9.80;99.90
15900;DHT22;8048;50.644;6.184;2023-04-29T06:58:16;9.80;99.90
15900;DHT22;8048;50.644;6.184;2023-04-29T07:00:45;9.90;99.90
15900;DHT22;8048;50.644;6.184;2023-04-29T07:03:11;9.80;99.90
15900;DHT22;8048;50.644;6.184;2023-04-29T07:05:37;9.80;99.90
15900;DHT22;8048;50.644;6.184;2023-04-29T07:08:07;9.70;99.90
15900;DHT22;8048;50.644;6.184;2023-04-29T07:10:33;9.80;99.90
15900;DHT22;8048;50.644;6.184;2023-04-29T07:12:59;9.70;99.90
15900;DHT22;8048;50.644;6.184;2023-04-29T07:15:25;9.70;99.90
15900;DHT22;8048;50.644;6.184;2023-04-29T07:17:51;9.80;99.90
15900;DHT22;8048;50.644;6.184;2023-04-29T07:20:17;9.80;99.90
15900;DHT22;8048;50.644;6.184;2023-04-29T07:22:42;9.80;99.90
15900;DHT22;8048;50.644;6.184;2023-04-29T07:25:08;9.90;99.90
15900;DHT22;8048;50.644;6.184;2023-04-29T07:27:35;9.90;99.90
15900;DHT22;8048;50.644;6.184;2023-04-29T07:30:01;9.90;99.90
15900;DHT22;8048;50.644;6.184;2023-04-29T07:32:27;9.80;99.90
15900;DHT22;8048;50.644;6.184;2023-04-29T07:34:53;9.80;99.90
15900;DHT22;8048;50.644;6.184;2023-04-29T07:37:18;9.90;99.90
15900;DHT22;8048;50.644;6.184;2023-04-29T07:39:44;9.90;99.90
15900;DHT22;8048;50.644;6.184;2023-04-29T07:42:10;9.90;99.90
15900;DHT22;8048;50.644;6.184;2023-04-29T07:44:35;9.90;99.90
15900;DHT22;8048;50.644;6.184;2023-04-29T07:47:01;9.80;99.90
15900;DHT22;8048;50.644;6.184;2023-04-29T07:49:27;9.80;99.90
15900;DHT22;8048;50.644;6.184;2023-04-29T07:51:52;9.80;99.90
15900;DHT22;8048;50.644;6.184;2023-04-29T07:54:18;9.80;99.90
15900;DHT22;8048;50.644;6.184;2023-04-29T07:56:46;9.80;99.90
15900;DHT22;8048;50.644;6.184;2023-04-29T07:59:12;9.80;99.90
15900;DHT22;8048;50.644;6.184;2023-04-29T08:01:39;9.80;99.90
15900;DHT22;8048;50.644;6.184;2023-04-29T08:04:05;9.80;99.90
15900;DHT22;8048;50.644;6.184;2023-04-29T08:06:32;9.90;99.90
15900;DHT22;8048;50.644;6.184;2023-04-29T08:08:57;9.90;99.90
15900;DHT22;8048;50.644;6.184;2023-04-29T08:11:23;9.90;99.90
15900;DHT22;8048;50.644;6.184;2023-04-29T08:13:49;10.00;99.90
15900;DHT22;8048;50.644;6.184;2023-04-29T08:16:15;10.00;99.90
15900;DHT22;8048;50.644;6.184;2023-04-29T08:18:41;10.00;99.90
15900;DHT22;8048;50.644;6.184;2023-04-29T08:21:07;10.10;99.90
15900;DHT22;8048;50.644;6.184;2023-04-29T08:23:36;10.00;99.90
15900;DHT22;8048;50.644;6.184;2023-04-29T08:26:01;10.00;99.90
15900;DHT22;8048;50.644;6.184;2023-04-29T08:28:27;10.00;99.90
15900;DHT22;8048;50.644;6.184;2023-04-29T08:30:53;10.00;99.90
15900;DHT22;8048;50.644;6.184;2023-04-29T08:33:19;10.00;99.90
15900;DHT22;8048;50.644;6.184;2023-04-29T08:35:45;10.00;99.90
15900;DHT22;8048;50.644;6.184;2023-04-29T08:38:11;10.00;99.90
15900;DHT22;8048;50.644;6.184;2023-04-29T08:40:44;10.00;99.90
15900;DHT22;8048;50.644;6.184;2023-04-29T08:43:13;9.90;99.90
15900;DHT22;8048;50.644;6.184;2023-04-29T08:45:40;10.00;99.90
15900;DHT22;8048;50.644;6.184;2023-04-29T08:48:06;10.00;99.90
15900;DHT22;8048;50.644;6.184;2023-04-29T08:50:40;10.00;99.90
15900;DHT22;8048;50.644;6.184;2023-04-29T08:53:06;9.90;99.90
15900;DHT22;8048;50.644;6.184;2023-04-29T08:55:35;10.00;99.90
15900;DHT22;8048;50.644;6.184;2023-04-29T08:58:01;10.10;99.90
15900;DHT22;8048;50.644;6.184;2023-04-29T09:00:27;10.10;99.90
15900;DHT22;8048;50.644;6.184;2023-04-29T09:02:56;10.10;99.90
15900;DHT22;8048;50.644;6.184;2023-04-29T09:05:23;10.20;99.90
15900;DHT22;8048;50.644;6.184;2023-04-29T09:07:50;10.20;99.90
15900;DHT22;8048;50.644;6.184;2023-04-29T09:10:16;10.30;99.90
15900;DHT22;8048;50.644;6.184;2023-04-29T09:12:42;10.30;99.90
15900;DHT22;8048;50.644;6.184;2023-04-29T09:15:08;10.30;99.90
15900;DHT22;8048;50.644;6.184;2023-04-29T09:17:38;10.30;99.90
15900;DHT22;8048;50.644;6.184;2023-04-29T09:22:53;10.30;99.90
15900;DHT22;8048;50.644;6.184;2023-04-29T09:25:20;10.20;99.90
15900;DHT22;8048;50.644;6.184;2023-04-29T09:27:46;10.20;99.90
15900;DHT22;8048;50.644;6.184;2023-04-29T09:30:12;10.20;99.90
15900;DHT22;8048;50.644;6.184;2023-04-29T09:32:40;10.20;99.90
15900;DHT22;8048;50.644;6.184;2023-04-29T09:37:49;10.20;99.90
15900;DHT22;8048;50.644;6.184;2023-04-29T09:40:27;10.10;99.90
15900;DHT22;8048;50.644;6.184;2023-04-29T09:42:54;10.10;99.90
15900;DHT22;8048;50.644;6.184;2023-04-29T09:45:37;10.10;99.90
15900;DHT22;8048;50.644;6.184;2023-04-29T09:48:03;10.20;99.90
15900;DHT22;8048;50.644;6.184;2023-04-29T09:50:30;10.10;99.90
15900;DHT22;8048;50.644;6.184;2023-04-29T09:52:57;10.10;99.90
15900;DHT22;8048;50.644;6.184;2023-04-29T09:55:22;10.20;99.90
15900;DHT22;8048;50.644;6.184;2023-04-29T09:57:48;10.20;99.90
15900;DHT22;8048;50.644;6.184;2023-04-29T10:00:14;10.20;99.90
15900;DHT22;8048;50.644;6.184;2023-04-29T10:02:45;10.30;99.90
15900;DHT22;8048;50.644;6.184;2023-04-29T10:05:13;10.30;99.90
15900;DHT22;8048;50.644;6.184;2023-04-29T10:07:40;10.30;99.90
15900;DHT22;8048;50.644;6.184;2023-04-29T10:10:06;10.30;99.90
15900;DHT22;8048;50.644;6.184;2023-04-29T10:12:34;10.30;99.90
15900;DHT22;8048;50.644;6.184;2023-04-29T10:17:45;10.40;99.90
15900;DHT22;8048;50.644;6.184;2023-04-29T10:20:21;10.40;99.90
15900;DHT22;8048;50.644;6.184;2023-04-29T10:22:48;10.50;99.90
15900;DHT22;8048;50.644;6.184;2023-04-29T10:25:15;10.60;99.90
15900;DHT22;8048;50.644;6.184;2023-04-29T10:27:42;10.50;99.90
15900;DHT22;8048;50.644;6.184;2023-04-29T10:30:11;10.60;99.90
15900;DHT22;8048;50.644;6.184;2023-04-29T10:32:39;10.50;99.90
15900;DHT22;8048;50.644;6.184;2023-04-29T10:35:08;10.50;99.90
15900;DHT22;8048;50.644;6.184;2023-04-29T10:37:35;10.50;99.90
15900;DHT22;8048;50.644;6.184;2023-04-29T10:42:46;10.50;99.90
15900;DHT22;8048;50.644;6.184;2023-04-29T10:45:20;10.50;99.90
15900;DHT22;8048;50.644;6.184;2023-04-29T10:53:14;10.50;99.90
15900;DHT22;8048;50.644;6.184;2023-04-29T10:55:41;10.60;99.90
15900;DHT22;8048;50.644;6.184;2023-04-29T10:58:35;10.60;99.90
15900;DHT22;8048;50.644;6.184;2023-04-29T11:01:01;10.60;99.90
15900;DHT22;8048;50.644;6.184;2023-04-29T11:03:53;10.60;99.90
15900;DHT22;8048;50.644;6.184;2023-04-29T11:09:04;10.70;99.90
15900;DHT22;8048;50.644;6.184;2023-04-29T11:11:56;10.70;99.90
15900;DHT22;8048;50.644;6.184;2023-04-29T11:14:24;10.70;99.90
15900;DHT22;8048;50.644;6.184;2023-04-29T11:16:52;10.70;99.90
15900;DHT22;8048;50.644;6.184;2023-04-29T11:19:18;10.70;99.90
15900;DHT22;8048;50.644;6.184;2023-04-29T11:21:45;10.80;99.90
15900;DHT22;8048;50.644;6.184;2023-04-29T11:24:12;10.90;99.90
15900;DHT22;8048;50.644;6.184;2023-04-29T11:26:40;11.00;99.90
15900;DHT22;8048;50.644;6.184;2023-04-29T11:29:07;11.10;99.90
15900;DHT22;8048;50.644;6.184;2023-04-29T11:31:35;11.30;99.90
15900;DHT22;8048;50.644;6.184;2023-04-29T11:34:03;11.40;99.90
15900;DHT22;8048;50.644;6.184;2023-04-29T11:36:31;11.70;99.90
15900;DHT22;8048;50.644;6.184;2023-04-29T11:38:59;12.10;99.90
15900;DHT22;8048;50.644;6.184;2023-04-29T11:41:25;12.30;99.90
15900;DHT22;8048;50.644;6.184;2023-04-29T11:43:54;12.50;99.90
15900;DHT22;8048;50.644;6.184;2023-04-29T11:46:21;12.80;99.90
15900;DHT22;8048;50.644;6.184;2023-04-29T11:48:47;12.90;99.90
15900;DHT22;8048;50.644;6.184;2023-04-29T11:51:17;13.00;99.90
15900;DHT22;8048;50.644;6.184;2023-04-29T11:53:46;13.00;99.90
15900;DHT22;8048;50.644;6.184;2023-04-29T11:56:12;12.90;99.90
15900;DHT22;8048;50.644;6.184;2023-04-29T11:58:38;12.80;99.90
15900;DHT22;8048;50.644;6.184;2023-04-29T12:01:04;12.70;99.90
15900;DHT22;8048;50.644;6.184;2023-04-29T12:03:31;12.60;99.90
15900;DHT22;8048;50.644;6.184;2023-04-29T12:05:58;12.50;99.90
15900;DHT22;8048;50.644;6.184;2023-04-29T12:08:27;12.50;99.90
15900;DHT22;8048;50.644;6.184;2023-04-29T12:10:56;12.40;99.90
15900;DHT22;8048;50.644;6.184;2023-04-29T12:13:31;12.30;99.90
15900;DHT22;8048;50.644;6.184;2023-04-29T12:15:58;12.20;99.90
15900;DHT22;8048;50.644;6.184;2023-04-29T12:18:23;12.20;99.90
15900;DHT22;8048;50.644;6.184;2023-04-29T12:20:50;12.20;99.90
15900;DHT22;8048;50.644;6.184;2023-04-29T12:23:18;12.10;99.90
15900;DHT22;8048;50.644;6.184;2023-04-29T12:25:53;12.10;99.90
15900;DHT22;8048;50.644;6.184;2023-04-29T12:28:19;12.10;99.90
15900;DHT22;8048;50.644;6.184;2023-04-29T12:30:51;12.00;99.90
15900;DHT22;8048;50.644;6.184;2023-04-29T12:35:48;12.00;99.90
15900;DHT22;8048;50.644;6.184;2023-04-29T12:38:25;12.10;99.90
15900;DHT22;8048;50.644;6.184;2023-04-29T12:40:58;12.20;99.90
15900;DHT22;8048;50.644;6.184;2023-04-29T12:43:27;12.30;99.90
15900;DHT22;8048;50.644;6.184;2023-04-29T12:45:59;12.20;99.90
15900;DHT22;8048;50.644;6.184;2023-04-29T12:48:31;12.30;99.90
15900;DHT22;8048;50.644;6.184;2023-04-29T12:50:57;12.40;99.90
15900;DHT22;8048;50.644;6.184;2023-04-29T12:53:24;12.50;99.90
15900;DHT22;8048;50.644;6.184;2023-04-29T12:55:50;12.70;99.90
15900;DHT22;8048;50.644;6.184;2023-04-29T12:58:16;12.80;99.90
15900;DHT22;8048;50.644;6.184;2023-04-29T13:00:42;12.90;99.90
15900;DHT22;8048;50.644;6.184;2023-04-29T13:03:07;13.00;99.90
15900;DHT22;8048;50.644;6.184;2023-04-29T13:05:33;13.10;99.90
15900;DHT22;8048;50.644;6.184;2023-04-29T13:08:00;13.10;99.90
15900;DHT22;8048;50.644;6.184;2023-04-29T13:10:25;13.00;99.90
15900;DHT22;8048;50.644;6.184;2023-04-29T13:12:53;12.90;99.90
15900;DHT22;8048;50.644;6.184;2023-04-29T13:15:18;12.90;99.90
15900;DHT22;8048;50.644;6.184;2023-04-29T13:17:44;12.80;99.90
15900;DHT22;8048;50.644;6.184;2023-04-29T13:20:10;12.80;99.90
15900;DHT22;8048;50.644;6.184;2023-04-29T13:22:36;12.70;99.90
15900;DHT22;8048;50.644;6.184;2023-04-29T13:25:02;12.70;99.90
15900;DHT22;8048;50.644;6.184;2023-04-29T13:27:28;12.70;99.90
15900;DHT22;8048;50.644;6.184;2023-04-29T13:29:54;12.60;99.90
15900;DHT22;8048;50.644;6.184;2023-04-29T13:32:21;12.60;99.90
15900;DHT22;8048;50.644;6.184;2023-04-29T13:34:48;12.70;99.90
15900;DHT22;8048;50.644;6.184;2023-04-29T13:37:14;12.60;99.90
15900;DHT22;8048;50.644;6.184;2023-04-29T13:39:39;12.70;99.90
15900;DHT22;8048;50.644;6.184;2023-04-29T13:42:05;12.70;99.90
15900;DHT22;8048;50.644;6.184;2023-04-29T13:44:31;12.90;99.90
15900;DHT22;8048;50.644;6.184;2023-04-29T13:46:56;13.00;99.90
15900;DHT22;8048;50.644;6.184;2023-04-29T13:49:22;13.10;99.90
15900;DHT22;8048;50.644;6.184;2023-04-29T13:51:47;13.30;99.90
15900;DHT22;8048;50.644;6.184;2023-04-29T13:54:13;13.30;99.90
15900;DHT22;8048;50.644;6.184;2023-04-29T13:56:38;13.40;99.90
15900;DHT22;8048;50.644;6.184;2023-04-29T13:59:04;13.40;99.90
15900;DHT22;8048;50.644;6.184;2023-04-29T14:01:30;13.40;99.90
15900;DHT22;8048;50.644;6.184;2023-04-29T14:03:55;13.50;99.90
15900;DHT22;8048;50.644;6.184;2023-04-29T14:06:21;13.40;99.40
15900;DHT22;8048;50.644;6.184;2023-04-29T14:08:46;13.30;99.80
15900;DHT22;8048;50.644;6.184;2023-04-29T14:11:12;13.30;99.80
15900;DHT22;8048;50.644;6.184;2023-04-29T14:13:37;13.30;99.30
15900;DHT22;8048;50.644;6.184;2023-04-29T14:16:03;13.30;99.60
15900;DHT22;8048;50.644;6.184;2023-04-29T14:18:30;13.40;99.70
15900;DHT22;8048;50.644;6.184;2023-04-29T14:20:56;13.40;99.70
15900;DHT22;8048;50.644;6.184;2023-04-29T14:23:23;13.40;99.50
15900;DHT22;8048;50.644;6.184;2023-04-29T14:25:50;13.40;99.90
15900;DHT22;8048;50.644;6.184;2023-04-29T14:28:15;13.50;99.50
15900;DHT22;8048;50.644;6.184;2023-04-29T14:30:41;13.50;99.90
15900;DHT22;8048;50.644;6.184;2023-04-29T14:33:08;13.60;99.90
15900;DHT22;8048;50.644;6.184;2023-04-29T14:35:33;13.60;99.90
15900;DHT22;8048;50.644;6.184;2023-04-29T14:37:59;13.60;98.70
15900;DHT22;8048;50.644;6.184;2023-04-29T14:40:24;13.50;98.80
15900;DHT22;8048;50.644;6.184;2023-04-29T14:42:50;13.50;99.30
15900;DHT22;8048;50.644;6.184;2023-04-29T14:45:15;13.50;99.40
15900;DHT22;8048;50.644;6.184;2023-04-29T14:47:41;13.50;99.70
15900;DHT22;8048;50.644;6.184;2023-04-29T14:50:09;13.50;99.30
15900;DHT22;8048;50.644;6.184;2023-04-29T14:52:34;13.50;99.90
15900;DHT22;8048;50.644;6.184;2023-04-29T14:55:01;13.50;99.70
15900;DHT22;8048;50.644;6.184;2023-04-29T14:57:26;13.50;99.20
15900;DHT22;8048;50.644;6.184;2023-04-29T14:59:52;13.50;99.70
15900;DHT22;8048;50.644;6.184;2023-04-29T15:02:17;13.50;99.20
15900;DHT22;8048;50.644;6.184;2023-04-29T15:04:43;13.50;99.70
15900;DHT22;8048;50.644;6.184;2023-04-29T15:07:13;13.60;99.40
15900;DHT22;8048;50.644;6.184;2023-04-29T15:09:40;13.60;99.70
15900;DHT22;8048;50.644;6.184;2023-04-29T15:12:05;13.70;99.20
15900;DHT22;8048;50.644;6.184;2023-04-29T15:14:31;13.60;98.10
15900;DHT22;8048;50.644;6.184;2023-04-29T15:16:57;13.60;99.10
15900;DHT22;8048;50.644;6.184;2023-04-29T15:19:23;13.60;99.10
15900;DHT22;8048;50.644;6.184;2023-04-29T15:21:50;13.60;99.10
15900;DHT22;8048;50.644;6.184;2023-04-29T15:24:16;13.60;99.00
15900;DHT22;8048;50.644;6.184;2023-04-29T15:26:42;13.70;99.60
15900;DHT22;8048;50.644;6.184;2023-04-29T15:29:08;13.70;98.70
15900;DHT22;8048;50.644;6.184;2023-04-29T15:31:33;13.70;98.90
15900;DHT22;8048;50.644;6.184;2023-04-29T15:33:59;13.80;98.90
15900;DHT22;8048;50.644;6.184;2023-04-29T15:36:29;13.80;98.80
15900;DHT22;8048;50.644;6.184;2023-04-29T15:38:55;13.80;99.00
15900;DHT22;8048;50.644;6.184;2023-04-29T15:41:21;13.90;98.80
15900;DHT22;8048;50.644;6.184;2023-04-29T15:43:47;13.90;98.00
15900;DHT22;8048;50.644;6.184;2023-04-29T15:46:12;13.90;98.70
15900;DHT22;8048;50.644;6.184;2023-04-29T15:48:38;14.00;97.10
15900;DHT22;8048;50.644;6.184;2023-04-29T15:51:04;14.10;97.40
15900;DHT22;8048;50.644;6.184;2023-04-29T15:53:29;14.20;97.90
15900;DHT22;8048;50.644;6.184;2023-04-29T15:55:55;14.40;98.10
15900;DHT22;8048;50.644;6.184;2023-04-29T15:58:21;14.40;97.20
15900;DHT22;8048;50.644;6.184;2023-04-29T16:00:46;14.50;97.00
15900;DHT22;8048;50.644;6.184;2023-04-29T16:03:12;14.50;96.80
15900;DHT22;8048;50.644;6.184;2023-04-29T16:05:38;14.50;96.40
15900;DHT22;8048;50.644;6.184;2023-04-29T16:08:04;14.40;96.60
15900;DHT22;8048;50.644;6.184;2023-04-29T16:10:29;14.40;95.70
15900;DHT22;8048;50.644;6.184;2023-04-29T16:12:55;14.30;96.10